createdAt,value
2022-11-23T00:01:28.674Z,8
2022-11-23T00:03:59.390Z,15
2022-11-23T00:06:31.212Z,12
2022-11-23T00:09:02.197Z,14
2022-11-23T00:11:33.237Z,11
2022-11-23T00:14:05.844Z,10
2022-11-23T00:16:36.624Z,12
2022-11-23T00:19:07.300Z,12
2022-11-23T00:21:38.175Z,11
2022-11-23T00:24:09.090Z,12
2022-11-23T00:26:40.934Z,16
2022-11-23T00:29:12.538Z,12
2022-11-23T00:31:43.795Z,10
2022-11-23T00:34:14.648Z,13
2022-11-23T00:36:45.037Z,14
2022-11-23T00:39:14.484Z,17
2022-11-23T00:41:45.794Z,14
2022-11-23T00:44:17.339Z,14
2022-11-23T00:46:47.674Z,16
2022-11-23T00:49:18.388Z,13
2022-11-23T00:51:49.550Z,17
2022-11-23T00:54:20.620Z,17
2022-11-23T00:56:51.176Z,12
2022-11-23T00:59:22.198Z,15
2022-11-23T01:01:52.695Z,15
2022-11-23T01:04:24.318Z,16
2022-11-23T01:06:55.655Z,15
2022-11-23T01:09:26.540Z,18
2022-11-23T01:11:58.278Z,18
2022-11-23T01:14:30.976Z,15
2022-11-23T01:17:02.025Z,17
2022-11-23T01:19:32.787Z,17
2022-11-23T01:22:04.026Z,17
2022-11-23T01:24:35.324Z,20
2022-11-23T01:27:06.736Z,17
2022-11-23T01:29:38.366Z,16
2022-11-23T01:32:08.664Z,15
2022-11-23T01:34:39.294Z,16
2022-11-23T01:37:11.184Z,18
2022-11-23T01:39:42.291Z,18
2022-11-23T01:42:17.680Z,23
2022-11-23T01:44:44.337Z,14
2022-11-23T01:47:15.460Z,20
2022-11-23T01:49:46.953Z,20
2022-11-23T01:52:18.114Z,17
2022-11-23T01:54:49.346Z,20
2022-11-23T01:57:20.204Z,18
2022-11-23T01:59:51.597Z,20
2022-11-23T02:02:22.482Z,17
2022-11-23T02:04:53.366Z,19
2022-11-23T02:07:24.685Z,19
2022-11-23T02:09:56.148Z,22
2022-11-23T02:12:28.126Z,24
2022-11-23T02:14:59.183Z,20
2022-11-23T02:17:30.784Z,22
2022-11-23T02:20:01.630Z,27
2022-11-23T02:22:32.795Z,28
2022-11-23T02:25:03.940Z,16
2022-11-23T02:27:34.301Z,21
2022-11-23T02:30:04.976Z,29
2022-11-23T02:32:36.061Z,20
2022-11-23T02:35:07.112Z,24
2022-11-23T02:37:40.683Z,17
2022-11-23T02:40:11.980Z,24
2022-11-23T02:45:34.798Z,27
2022-11-23T02:48:15.531Z,19
2022-11-23T02:50:51.389Z,24
2022-11-23T02:53:21.741Z,25
2022-11-23T02:55:52.876Z,25
2022-11-23T02:58:23.794Z,23
2022-11-23T03:00:54.456Z,25
2022-11-23T03:03:25.509Z,28
2022-11-23T03:05:58.224Z,26
2022-11-23T03:08:29.763Z,28
2022-11-23T03:11:00.351Z,30
2022-11-23T03:13:31.787Z,22
2022-11-23T03:16:03.220Z,25
2022-11-23T03:18:33.994Z,24
2022-11-23T03:21:04.890Z,24
2022-11-23T03:23:35.225Z,21
2022-11-23T03:26:09.849Z,24
2022-11-23T03:28:37.591Z,23
2022-11-23T03:31:08.380Z,22
2022-11-23T03:33:39.694Z,23
2022-11-23T03:36:11.328Z,24
2022-11-23T03:38:43.414Z,20
2022-11-23T03:41:14.274Z,17
2022-11-23T03:43:45.722Z,16
2022-11-23T03:46:15.942Z,25
2022-11-23T03:48:46.797Z,26
2022-11-23T03:51:18.167Z,20
2022-11-23T03:53:49.270Z,23
2022-11-23T03:56:20.474Z,21
2022-11-23T03:58:51.096Z,17
2022-11-23T04:01:22.588Z,24
2022-11-23T04:03:54.069Z,20
2022-11-23T04:06:25.280Z,20
2022-11-23T04:09:00.487Z,23
2022-11-23T04:11:27.241Z,19
2022-11-23T04:13:58.490Z,23
2022-11-23T04:16:29.418Z,19
2022-11-23T04:19:00.250Z,23
2022-11-23T04:21:31.698Z,18
2022-11-23T04:24:02.902Z,23
2022-11-23T04:26:34.280Z,22
2022-11-23T04:29:03.237Z,29
2022-11-23T04:31:34.167Z,18
2022-11-23T04:34:05.516Z,24
2022-11-23T04:36:36.230Z,24
2022-11-23T04:39:08.081Z,27
2022-11-23T04:41:39.700Z,25
2022-11-23T04:44:10.875Z,26
2022-11-23T04:46:41.801Z,24
2022-11-23T04:49:13.440Z,24
2022-11-23T04:51:44.829Z,20
2022-11-23T04:54:16.018Z,29
2022-11-23T04:56:47.554Z,22
2022-11-23T04:59:18.611Z,23
2022-11-23T05:01:49.866Z,28
2022-11-23T05:04:20.568Z,23
2022-11-23T05:06:51.073Z,21
2022-11-23T05:09:22.636Z,17
2022-11-23T05:11:54.254Z,25
2022-11-23T05:14:25.465Z,24
2022-11-23T05:16:56.263Z,24
2022-11-23T05:19:28.451Z,18
2022-11-23T05:22:00.201Z,20
2022-11-23T05:24:31.500Z,27
2022-11-23T05:27:00.474Z,29
2022-11-23T05:29:32.855Z,25
2022-11-23T05:32:03.849Z,20
2022-11-23T05:34:34.943Z,31
2022-11-23T05:37:05.987Z,25
2022-11-23T05:39:36.987Z,20
2022-11-23T05:42:08.072Z,26
2022-11-23T05:44:38.827Z,26
2022-11-23T05:47:09.797Z,32
2022-11-23T05:49:40.232Z,25
2022-11-23T05:52:10.423Z,24
2022-11-23T05:54:41.886Z,25
2022-11-23T05:57:13.365Z,24
2022-11-23T05:59:44.549Z,24
2022-11-23T06:02:16.039Z,29
2022-11-23T06:04:47.305Z,21
2022-11-23T06:07:18.457Z,28
2022-11-23T06:09:49.646Z,23
2022-11-23T06:12:20.125Z,24
2022-11-23T06:14:51.177Z,25
2022-11-23T06:17:22.220Z,24
2022-11-23T06:19:52.929Z,20
2022-11-23T06:22:24.052Z,24
2022-11-23T06:24:55.409Z,24
2022-11-23T06:27:28.054Z,28
2022-11-23T06:29:58.964Z,35
2022-11-23T06:32:29.575Z,28
2022-11-23T06:35:01.793Z,19
2022-11-23T06:37:32.288Z,24
2022-11-23T06:40:02.902Z,29
2022-11-23T06:42:40.448Z,38
2022-11-23T06:45:04.448Z,28
2022-11-23T06:47:35.068Z,25
2022-11-23T06:50:06.216Z,32
2022-11-23T06:52:35.505Z,39
2022-11-23T06:55:07.294Z,36
2022-11-23T06:57:38.217Z,41
2022-11-23T07:00:09.495Z,36
2022-11-23T07:02:40.514Z,42
2022-11-23T07:05:11.330Z,30
2022-11-23T07:07:42.612Z,37
2022-11-23T07:10:13.564Z,39
2022-11-23T07:12:44.514Z,32
2022-11-23T07:15:15.142Z,44
2022-11-23T07:17:45.926Z,49
2022-11-23T07:20:15.236Z,33
2022-11-23T07:22:44.360Z,42
2022-11-23T07:25:15.281Z,35
2022-11-23T07:27:46.320Z,30
2022-11-23T07:30:16.970Z,36
2022-11-23T07:32:47.940Z,39
2022-11-23T07:35:19.160Z,31
2022-11-23T07:37:49.937Z,41
2022-11-23T07:40:20.464Z,36
2022-11-23T07:42:51.501Z,45
2022-11-23T07:45:22.645Z,54
2022-11-23T07:47:54.298Z,56
2022-11-23T07:50:24.996Z,48
2022-11-23T07:52:56.143Z,50
2022-11-23T07:55:26.888Z,44
2022-11-23T07:57:57.247Z,50
2022-11-23T08:00:27.410Z,35
2022-11-23T08:03:25.946Z,43
2022-11-23T08:05:28.940Z,64
2022-11-23T08:07:59.684Z,48
2022-11-23T08:10:30.185Z,53
2022-11-23T08:13:00.557Z,56
2022-11-23T08:15:31.084Z,56
2022-11-23T08:18:02.686Z,49
2022-11-23T08:20:33.205Z,41
2022-11-23T08:23:03.830Z,47
2022-11-23T08:25:34.040Z,48
2022-11-23T08:28:04.827Z,45
2022-11-23T08:30:35.610Z,56
2022-11-23T08:33:06.287Z,58
2022-11-23T08:35:36.696Z,59
2022-11-23T08:38:06.730Z,44
2022-11-23T08:40:36.822Z,49
2022-11-23T08:43:08.697Z,48
2022-11-23T08:45:39.737Z,40
2022-11-23T08:48:10.856Z,48
2022-11-23T08:50:41.813Z,44
2022-11-23T08:53:12.240Z,36
2022-11-23T08:55:43.326Z,43
2022-11-23T08:58:14.296Z,37
2022-11-23T09:00:45.624Z,34
2022-11-23T09:03:15.942Z,44
2022-11-23T09:05:46.901Z,36
2022-11-23T09:08:17.316Z,42
2022-11-23T09:10:47.954Z,36
2022-11-23T09:13:18.702Z,36
2022-11-23T09:15:49.551Z,40
2022-11-23T09:18:19.990Z,32
2022-11-23T09:20:50.849Z,55
2022-11-23T09:23:21.764Z,78
2022-11-23T09:25:52.789Z,47
2022-11-23T09:28:23.806Z,55
2022-11-23T09:30:54.832Z,37
2022-11-23T09:33:25.795Z,43
2022-11-23T09:35:56.737Z,35
2022-11-23T09:38:44.694Z,27
2022-11-23T09:40:58.754Z,33
2022-11-23T09:43:29.473Z,48
2022-11-23T09:46:00.646Z,20
2022-11-23T09:48:31.939Z,29
2022-11-23T09:51:03.067Z,29
2022-11-23T09:53:34.100Z,38
2022-11-23T09:56:05.079Z,45
2022-11-23T09:58:36.390Z,52
2022-11-23T10:01:08.430Z,52
2022-11-23T10:03:39.850Z,59
2022-11-23T10:06:09.306Z,56
2022-11-23T10:08:40.470Z,63
2022-11-23T10:11:12.007Z,65
2022-11-23T10:13:43.128Z,62
2022-11-23T10:16:14.596Z,66
2022-11-23T10:18:45.657Z,64
2022-11-23T10:21:17.290Z,64
2022-11-23T10:23:47.836Z,67
2022-11-23T10:26:18.251Z,64
2022-11-23T10:28:49.601Z,64
2022-11-23T10:31:21.047Z,60
2022-11-23T10:33:52.043Z,61
2022-11-23T10:36:22.857Z,60
2022-11-23T10:38:53.476Z,56
2022-11-23T10:41:24.554Z,65
2022-11-23T10:43:55.020Z,64
2022-11-23T10:46:25.895Z,64
2022-11-23T10:48:56.912Z,64
2022-11-23T10:51:28.962Z,58
2022-11-23T10:54:05.092Z,60
2022-11-23T10:56:31.322Z,63
2022-11-23T10:59:02.629Z,60
2022-11-23T11:01:33.858Z,62
2022-11-23T11:04:05.428Z,57
2022-11-23T11:06:37.870Z,57
2022-11-23T11:09:13.386Z,51
2022-11-23T11:11:39.833Z,60
2022-11-23T11:14:11.578Z,55
2022-11-23T11:16:46.564Z,64
2022-11-23T11:19:14.524Z,57
2022-11-23T11:21:45.723Z,55
2022-11-23T11:24:16.519Z,64
2022-11-23T11:26:47.760Z,59
2022-11-23T11:29:19.304Z,62
2022-11-23T11:31:50.807Z,54
2022-11-23T11:34:21.379Z,60
2022-11-23T11:36:53.192Z,64
2022-11-23T11:39:28.706Z,59
2022-11-23T11:41:59.860Z,59
2022-11-23T11:44:39.864Z,57
2022-11-23T11:47:11.208Z,61
2022-11-23T11:49:42.548Z,60
2022-11-23T11:52:11.826Z,66
2022-11-23T11:54:43.861Z,59
2022-11-23T11:57:15.285Z,56
2022-11-23T12:02:59.933Z,52
2022-11-23T12:05:43.610Z,55
2022-11-23T12:08:16.326Z,55
2022-11-23T12:10:55.370Z,56
2022-11-23T12:13:32.141Z,63
2022-11-23T12:16:10.108Z,54
2022-11-23T12:18:41.326Z,53
2022-11-23T12:21:12.848Z,56
2022-11-23T12:23:46.555Z,57
2022-11-23T12:26:20.048Z,51
2022-11-23T12:28:51.435Z,50
2022-11-23T12:31:22.262Z,53
2022-11-23T12:33:56.262Z,55
2022-11-23T12:36:27.407Z,56
2022-11-23T12:38:58.796Z,53
2022-11-23T12:41:31.690Z,54
2022-11-23T12:44:03.945Z,55
2022-11-23T12:46:39.960Z,52
2022-11-23T12:49:11.137Z,59
2022-11-23T12:51:41.887Z,45
2022-11-23T12:54:13.939Z,52
2022-11-23T12:56:45.252Z,52
2022-11-23T12:59:16.586Z,68
2022-11-23T13:01:47.687Z,54
2022-11-23T13:04:18.280Z,64
2022-11-23T13:07:12.619Z,65
2022-11-23T13:09:22.085Z,66
2022-11-23T13:11:52.111Z,60
2022-11-23T13:14:25.750Z,65
2022-11-23T13:16:56.765Z,53
2022-11-23T13:19:30.483Z,44
2022-11-23T13:22:02.617Z,38
2022-11-23T13:24:33.941Z,50
2022-11-23T13:27:06.768Z,26
2022-11-23T13:29:37.620Z,32
2022-11-23T13:32:09.764Z,28
2022-11-23T13:34:42.433Z,35
2022-11-23T13:37:14.036Z,36
2022-11-23T13:39:44.589Z,34
2022-11-23T13:42:15.912Z,27
2022-11-23T13:44:53.267Z,24
2022-11-23T13:47:29.283Z,28
2022-11-23T13:50:00.988Z,49
2022-11-23T13:52:33.370Z,40
2022-11-23T13:55:09.639Z,28
2022-11-23T13:57:38.480Z,32
2022-11-23T14:00:10.863Z,56
2022-11-23T14:02:42.411Z,32
2022-11-23T14:05:14.573Z,20
2022-11-23T14:07:46.538Z,26
2022-11-23T14:10:21.909Z,25
2022-11-23T14:12:54.169Z,39
2022-11-23T14:18:03.781Z,24
2022-11-23T14:20:34.694Z,23
2022-11-23T14:23:05.755Z,21
2022-11-23T14:25:37.103Z,25
2022-11-23T14:28:18.282Z,26
2022-11-23T14:30:49.848Z,23
2022-11-23T14:33:21.602Z,29
2022-11-23T14:35:54.571Z,31
2022-11-23T14:38:32.092Z,34
2022-11-23T14:40:59.624Z,35
2022-11-23T14:46:09.289Z,33
2022-11-23T14:48:45.227Z,32
2022-11-23T14:51:17.567Z,27
2022-11-23T14:53:48.495Z,27
2022-11-23T14:56:23.415Z,28
2022-11-23T14:58:54.005Z,24
2022-11-23T15:01:26.079Z,26
2022-11-23T15:03:57.605Z,24
2022-11-23T15:06:39.614Z,20
2022-11-23T15:09:08.189Z,25
2022-11-23T15:11:40.356Z,33
2022-11-23T15:14:11.013Z,24
2022-11-23T15:16:43.473Z,24
2022-11-23T15:19:18.307Z,18
2022-11-23T15:21:49.653Z,29
2022-11-23T15:24:23.267Z,21
2022-11-23T15:26:55.459Z,26
2022-11-23T15:29:26.473Z,27
2022-11-23T15:32:32.410Z,31
2022-11-23T15:34:32.556Z,24
2022-11-23T15:37:03.284Z,23
2022-11-23T15:39:38.218Z,20
2022-11-23T15:42:09.725Z,25
2022-11-23T15:44:48.957Z,20
2022-11-23T15:47:16.019Z,23
2022-11-23T15:49:48.020Z,17
2022-11-23T15:52:23.153Z,21
2022-11-23T15:54:54.285Z,20
2022-11-23T15:57:25.121Z,16
2022-11-23T15:59:56.342Z,20
2022-11-23T16:02:28.320Z,20
2022-11-23T16:04:59.310Z,17
2022-11-23T16:07:31.025Z,21
2022-11-23T16:10:03.163Z,26
2022-11-23T16:12:34.411Z,25
2022-11-23T16:15:05.466Z,21
2022-11-23T16:17:39.652Z,25
2022-11-23T16:20:10.599Z,24
2022-11-23T16:22:45.746Z,24
2022-11-23T16:25:20.786Z,18
2022-11-23T16:27:51.894Z,19
2022-11-23T16:30:27.959Z,18
2022-11-23T16:33:03.871Z,23
2022-11-23T16:35:35.302Z,21
2022-11-23T16:38:06.506Z,28
2022-11-23T16:40:38.177Z,24
2022-11-23T16:43:13.777Z,22
2022-11-23T16:45:45.718Z,33
2022-11-23T16:48:21.806Z,25
2022-11-23T16:50:53.054Z,25
2022-11-23T16:53:24.137Z,21
2022-11-23T16:55:59.238Z,22
2022-11-23T16:58:31.434Z,20
2022-11-23T17:01:08.040Z,27
2022-11-23T17:03:39.512Z,23
2022-11-23T17:06:10.978Z,28
2022-11-23T17:08:42.575Z,24
2022-11-23T17:11:14.904Z,27
2022-11-23T17:13:50.011Z,22
2022-11-23T17:16:21.292Z,27
2022-11-23T17:19:02.728Z,32
2022-11-23T17:21:34.910Z,28
2022-11-23T17:24:10.528Z,40
2022-11-23T17:26:41.702Z,29
2022-11-23T17:29:18.650Z,20
2022-11-23T17:31:52.976Z,29
2022-11-23T17:34:25.270Z,22
2022-11-23T17:36:56.675Z,27
2022-11-23T17:39:28.268Z,32
2022-11-23T17:42:04.470Z,31
2022-11-23T17:44:30.643Z,29
2022-11-23T17:47:03.590Z,20
2022-11-23T17:49:36.618Z,28
2022-11-23T17:52:08.938Z,24
2022-11-23T17:54:40.148Z,24
2022-11-23T17:57:11.306Z,28
2022-11-23T17:59:44.621Z,27
2022-11-23T18:02:15.823Z,25
2022-11-23T18:04:52.570Z,23
2022-11-23T18:07:23.444Z,21
2022-11-23T18:09:54.476Z,27
2022-11-23T18:12:25.532Z,23
2022-11-23T18:14:56.861Z,28
2022-11-23T18:17:33.551Z,16
2022-11-23T18:20:07.834Z,19
2022-11-23T18:22:40.662Z,23
2022-11-23T18:25:11.504Z,20
2022-11-23T18:27:43.386Z,16
2022-11-23T18:30:18.570Z,16
2022-11-23T18:32:55.017Z,21
2022-11-23T18:35:26.274Z,21
2022-11-23T18:37:59.206Z,16
2022-11-23T18:40:30.811Z,21
2022-11-23T18:43:01.651Z,18
2022-11-23T18:45:32.888Z,23
2022-11-23T18:48:04.731Z,25
2022-11-23T18:50:37.142Z,27
2022-11-23T18:53:08.084Z,24
2022-11-23T18:55:39.230Z,27
2022-11-23T18:58:10.847Z,25
2022-11-23T19:00:42.738Z,24
2022-11-23T19:03:15.539Z,20
2022-11-23T19:05:48.107Z,26
2022-11-23T19:08:29.679Z,25
2022-11-23T19:10:59.214Z,26
2022-11-23T19:13:31.493Z,28
2022-11-23T19:16:04.017Z,27
2022-11-23T19:18:34.842Z,28
2022-11-23T19:21:07.218Z,32
2022-11-23T19:23:38.081Z,29
2022-11-23T19:26:10.362Z,23
2022-11-23T19:28:42.235Z,26
2022-11-23T19:31:14.973Z,32
2022-11-23T19:33:46.579Z,30
2022-11-23T19:36:17.280Z,27
2022-11-23T19:38:52.194Z,32
2022-11-23T19:41:30.091Z,31
2022-11-23T19:43:58.280Z,35
2022-11-23T19:46:29.220Z,31
2022-11-23T19:49:00.166Z,28
2022-11-23T19:51:35.529Z,28
2022-11-23T19:54:06.708Z,29
2022-11-23T19:56:38.003Z,28
2022-11-23T19:59:14.074Z,32
2022-11-23T20:01:45.472Z,23
2022-11-23T20:04:20.446Z,32
2022-11-23T20:06:51.564Z,28
2022-11-23T20:09:22.537Z,29
2022-11-23T20:11:53.741Z,32
2022-11-23T20:14:29.120Z,24
2022-11-23T20:17:00.267Z,27
2022-11-23T20:19:31.953Z,35
2022-11-23T20:22:02.996Z,26
2022-11-23T20:24:38.516Z,27
2022-11-23T20:27:10.177Z,32
2022-11-23T20:29:44.121Z,27
2022-11-23T20:32:14.295Z,29
2022-11-23T20:34:45.588Z,22
2022-11-23T20:37:20.861Z,20
2022-11-23T20:39:55.963Z,20
2022-11-23T20:42:27.066Z,28
2022-11-23T20:45:02.052Z,23
2022-11-23T20:47:33.784Z,27
2022-11-23T20:50:04.844Z,26
2022-11-23T20:52:39.513Z,23
2022-11-23T20:55:14.972Z,22
2022-11-23T20:57:46.071Z,25
2022-11-23T21:00:17.336Z,32
2022-11-23T21:02:48.362Z,28
2022-11-23T21:05:20.320Z,25
2022-11-23T21:07:51.537Z,33
2022-11-23T21:10:22.770Z,33
2022-11-23T21:12:54.328Z,32
2022-11-23T21:15:25.832Z,33
2022-11-23T21:17:57.293Z,36
2022-11-23T21:20:32.516Z,47
2022-11-23T21:23:02.089Z,40
2022-11-23T21:25:33.111Z,36
2022-11-23T21:28:04.470Z,42
2022-11-23T21:30:35.546Z,33
2022-11-23T21:33:07.500Z,40
2022-11-23T21:35:42.249Z,48
2022-11-23T21:38:14.010Z,49
2022-11-23T21:40:46.609Z,39
2022-11-23T21:43:17.701Z,42
2022-11-23T21:45:48.846Z,44
2022-11-23T21:48:19.878Z,49
2022-11-23T21:50:51.902Z,43
2022-11-23T21:53:22.961Z,41
2022-11-23T21:55:56.439Z,44
2022-11-23T21:58:28.360Z,41
2022-11-23T22:00:59.528Z,37
2022-11-23T22:03:36.546Z,42
2022-11-23T22:06:08.731Z,40
2022-11-23T22:08:39.634Z,37
2022-11-23T22:11:10.397Z,36
2022-11-23T22:13:42.281Z,59
2022-11-23T22:16:13.668Z,44
2022-11-23T22:18:44.424Z,43
2022-11-23T22:21:15.139Z,36
2022-11-23T22:23:47.295Z,40
2022-11-23T22:26:18.090Z,46
2022-11-23T22:28:49.027Z,36
2022-11-23T22:31:20.141Z,40
2022-11-23T22:33:51.282Z,36
2022-11-23T22:36:22.591Z,46
2022-11-23T22:38:57.975Z,44
2022-11-23T22:41:25.135Z,40
2022-11-23T22:43:56.313Z,47
2022-11-23T22:46:27.648Z,59
2022-11-23T22:49:02.141Z,43
2022-11-23T22:51:37.107Z,40
2022-11-23T22:54:11.731Z,46
2022-11-23T22:56:42.131Z,53
2022-11-23T22:59:13.272Z,49
2022-11-23T23:01:44.402Z,41
2022-11-23T23:04:15.563Z,52
2022-11-23T23:06:46.559Z,48
2022-11-23T23:09:17.947Z,49
2022-11-23T23:11:48.921Z,58
2022-11-23T23:14:19.792Z,51
2022-11-23T23:16:59.949Z,44
2022-11-23T23:19:31.212Z,46
2022-11-23T23:22:02.070Z,48
2022-11-23T23:24:32.740Z,41
2022-11-23T23:27:04.707Z,38
2022-11-23T23:29:39.076Z,52
2022-11-23T23:32:09.871Z,40
2022-11-23T23:34:40.060Z,38
2022-11-23T23:37:10.334Z,32
2022-11-23T23:39:41.183Z,37
2022-11-23T23:42:12.111Z,37
2022-11-23T23:44:43.133Z,37
2022-11-23T23:47:13.644Z,37
2022-11-23T23:49:44.393Z,38
2022-11-23T23:52:16.252Z,42
2022-11-23T23:54:46.951Z,41
2022-11-23T23:57:17.350Z,52
2022-11-23T23:59:52.788Z,36
